sensor_id;sensor_type;location;lat;lon;timestamp;P1;durP1;ratioP1;P2;durP2;ratioP2
57615;SDS011;43816;52.054;-9.494;2023-02-20T00:00:00;0.50;;;0.30;;
57615;SDS011;43816;52.054;-9.494;2023-02-20T00:00:15;0.60;;;0.40;;
57615;SDS011;43816;52.054;-9.494;2023-02-20T00:00:29;0.93;;;0.50;;
57615;SDS011;43816;52.054;-9.494;2023-02-20T00:00:42;0.95;;;0.50;;
57615;SDS011;43816;52.054;-9.494;2023-02-20T00:00:53;1.10;;;0.45;;
57615;SDS011;43816;52.054;-9.494;2023-02-20T00:01:03;0.73;;;0.30;;
57615;SDS011;43816;52.054;-9.494;2023-02-20T00:01:14;0.65;;;0.30;;
57615;SDS011;43816;52.054;-9.494;2023-02-20T00:01:25;0.60;;;0.30;;
57615;SDS011;43816;52.054;-9.494;2023-02-20T00:01:36;0.85;;;0.38;;
57615;SDS011;43816;52.054;-9.494;2023-02-20T00:01:48;0.87;;;0.40;;
57615;SDS011;43816;52.054;-9.494;2023-02-20T00:02:00;0.80;;;0.38;;
57615;SDS011;43816;52.054;-9.494;2023-02-20T00:02:11;0.90;;;0.30;;
57615;SDS011;43816;52.054;-9.494;2023-02-20T00:02:21;0.82;;;0.28;;
57615;SDS011;43816;52.054;-9.494;2023-02-20T00:02:32;0.73;;;0.30;;
57615;SDS011;43816;52.054;-9.494;2023-02-20T00:02:42;0.60;;;0.30;;
57615;SDS011;43816;52.054;-9.494;2023-02-20T00:02:52;0.60;;;0.30;;
57615;SDS011;43816;52.054;-9.494;2023-02-20T00:03:03;0.43;;;0.40;;
57615;SDS011;43816;52.054;-9.494;2023-02-20T00:03:14;0.50;;;0.35;;
57615;SDS011;43816;52.054;-9.494;2023-02-20T00:03:25;0.40;;;0.30;;
57615;SDS011;43816;52.054;-9.494;2023-02-20T00:03:36;0.75;;;0.25;;
57615;SDS011;43816;52.054;-9.494;2023-02-20T00:03:46;0.85;;;0.30;;
57615;SDS011;43816;52.054;-9.494;2023-02-20T00:03:56;1.00;;;0.47;;
57615;SDS011;43816;52.054;-9.494;2023-02-20T00:04:07;0.77;;;0.40;;
57615;SDS011;43816;52.054;-9.494;2023-02-20T00:04:17;0.95;;;0.40;;
57615;SDS011;43816;52.054;-9.494;2023-02-20T00:04:28;0.75;;;0.30;;
57615;SDS011;43816;52.054;-9.494;2023-02-20T00:04:38;0.93;;;0.40;;
57615;SDS011;43816;52.054;-9.494;2023-02-20T00:04:49;0.60;;;0.37;;
57615;SDS011;43816;52.054;-9.494;2023-02-20T00:04:59;0.57;;;0.32;;
57615;SDS011;43816;52.054;-9.494;2023-02-20T00:05:11;0.50;;;0.30;;
57615;SDS011;43816;52.054;-9.494;2023-02-20T00:05:22;0.60;;;0.30;;
57615;SDS011;43816;52.054;-9.494;2023-02-20T00:05:32;0.45;;;0.30;;
57615;SDS011;43816;52.054;-9.494;2023-02-20T00:05:43;0.40;;;0.30;;
57615;SDS011;43816;52.054;-9.494;2023-02-20T00:05:54;0.20;;;0.20;;
57615;SDS011;43816;52.054;-9.494;2023-02-20T00:06:04;0.57;;;0.30;;
57615;SDS011;43816;52.054;-9.494;2023-02-20T00:06:15;0.88;;;0.40;;
57615;SDS011;43816;52.054;-9.494;2023-02-20T00:06:25;1.23;;;0.40;;
57615;SDS011;43816;52.054;-9.494;2023-02-20T00:06:35;1.13;;;0.33;;
57615;SDS011;43816;52.054;-9.494;2023-02-20T00:06:45;0.83;;;0.30;;
57615;SDS011;43816;52.054;-9.494;2023-02-20T00:06:56;0.82;;;0.40;;
57615;SDS011;43816;52.054;-9.494;2023-02-20T00:07:06;0.83;;;0.33;;
57615;SDS011;43816;52.054;-9.494;2023-02-20T00:07:16;0.93;;;0.40;;
57615;SDS011;43816;52.054;-9.494;2023-02-20T00:07:27;0.63;;;0.30;;
57615;SDS011;43816;52.054;-9.494;2023-02-20T00:07:37;0.97;;;0.37;;
57615;SDS011;43816;52.054;-9.494;2023-02-20T00:07:47;0.80;;;0.30;;
57615;SDS011;43816;52.054;-9.494;2023-02-20T00:07:58;0.80;;;0.40;;
57615;SDS011;43816;52.054;-9.494;2023-02-20T00:08:08;0.32;;;0.30;;
57615;SDS011;43816;52.054;-9.494;2023-02-20T00:08:19;0.30;;;0.30;;
57615;SDS011;43816;52.054;-9.494;2023-02-20T00:08:29;0.20;;;0.20;;
57615;SDS011;43816;52.054;-9.494;2023-02-20T00:08:39;0.37;;;0.27;;
57615;SDS011;43816;52.054;-9.494;2023-02-20T00:08:50;0.50;;;0.37;;
57615;SDS011;43816;52.054;-9.494;2023-02-20T00:09:00;0.37;;;0.33;;
57615;SDS011;43816;52.054;-9.494;2023-02-20T00:09:11;0.55;;;0.40;;
57615;SDS011;43816;52.054;-9.494;2023-02-20T00:09:22;0.60;;;0.30;;
57615;SDS011;43816;52.054;-9.494;2023-02-20T00:09:32;0.70;;;0.30;;
57615;SDS011;43816;52.054;-9.494;2023-02-20T00:09:42;0.50;;;0.30;;
57615;SDS011;43816;52.054;-9.494;2023-02-20T00:09:52;0.57;;;0.30;;
57615;SDS011;43816;52.054;-9.494;2023-02-20T00:10:03;0.70;;;0.30;;
57615;SDS011;43816;52.054;-9.494;2023-02-20T00:10:13;0.60;;;0.30;;
57615;SDS011;43816;52.054;-9.494;2023-02-20T00:10:24;0.50;;;0.30;;
57615;SDS011;43816;52.054;-9.494;2023-02-20T00:10:35;0.60;;;0.30;;
57615;SDS011;43816;52.054;-9.494;2023-02-20T00:10:45;0.65;;;0.40;;
57615;SDS011;43816;52.054;-9.494;2023-02-20T00:10:55;0.80;;;0.50;;
57615;SDS011;43816;52.054;-9.494;2023-02-20T00:11:06;0.60;;;0.40;;
57615;SDS011;43816;52.054;-9.494;2023-02-20T00:11:16;0.70;;;0.40;;
57615;SDS011;43816;52.054;-9.494;2023-02-20T00:11:26;0.70;;;0.30;;
57615;SDS011;43816;52.054;-9.494;2023-02-20T00:11:37;0.50;;;0.30;;
57615;SDS011;43816;52.054;-9.494;2023-02-20T00:11:47;0.50;;;0.30;;
57615;SDS011;43816;52.054;-9.494;2023-02-20T00:11:57;0.47;;;0.30;;
57615;SDS011;43816;52.054;-9.494;2023-02-20T00:12:07;0.70;;;0.40;;
57615;SDS011;43816;52.054;-9.494;2023-02-20T00:12:18;0.73;;;0.30;;
57615;SDS011;43816;52.054;-9.494;2023-02-20T00:12:28;0.53;;;0.33;;
57615;SDS011;43816;52.054;-9.494;2023-02-20T00:12:38;0.30;;;0.30;;
57615;SDS011;43816;52.054;-9.494;2023-02-20T00:12:49;0.50;;;0.30;;
57615;SDS011;43816;52.054;-9.494;2023-02-20T00:13:00;0.68;;;0.30;;
57615;SDS011;43816;52.054;-9.494;2023-02-20T00:13:10;0.70;;;0.30;;
57615;SDS011;43816;52.054;-9.494;2023-02-20T00:13:21;0.52;;;0.32;;
57615;SDS011;43816;52.054;-9.494;2023-02-20T00:13:31;0.50;;;0.40;;
57615;SDS011;43816;52.054;-9.494;2023-02-20T00:13:45;0.60;;;0.40;;
57615;SDS011;43816;52.054;-9.494;2023-02-20T00:13:56;0.30;;;0.30;;
57615;SDS011;43816;52.054;-9.494;2023-02-20T00:14:06;0.30;;;0.30;;
57615;SDS011;43816;52.054;-9.494;2023-02-20T00:14:17;0.35;;;0.30;;
57615;SDS011;43816;52.054;-9.494;2023-02-20T00:14:27;0.40;;;0.30;;
57615;SDS011;43816;52.054;-9.494;2023-02-20T00:14:37;0.50;;;0.30;;
57615;SDS011;43816;52.054;-9.494;2023-02-20T00:14:48;0.53;;;0.40;;
57615;SDS011;43816;52.054;-9.494;2023-02-20T00:14:58;0.47;;;0.37;;
57615;SDS011;43816;52.054;-9.494;2023-02-20T00:15:08;0.57;;;0.30;;
57615;SDS011;43816;52.054;-9.494;2023-02-20T00:15:20;0.70;;;0.30;;
57615;SDS011;43816;52.054;-9.494;2023-02-20T00:15:31;0.73;;;0.30;;
57615;SDS011;43816;52.054;-9.494;2023-02-20T00:15:41;0.60;;;0.20;;
57615;SDS011;43816;52.054;-9.494;2023-02-20T00:15:51;0.30;;;0.20;;
57615;SDS011;43816;52.054;-9.494;2023-02-20T00:16:02;0.57;;;0.30;;
57615;SDS011;43816;52.054;-9.494;2023-02-20T00:16:13;0.77;;;0.30;;
57615;SDS011;43816;52.054;-9.494;2023-02-20T00:16:23;0.77;;;0.30;;
57615;SDS011;43816;52.054;-9.494;2023-02-20T00:16:34;0.63;;;0.30;;
57615;SDS011;43816;52.054;-9.494;2023-02-20T00:16:45;0.50;;;0.20;;
57615;SDS011;43816;52.054;-9.494;2023-02-20T00:16:56;0.32;;;0.20;;
57615;SDS011;43816;52.054;-9.494;2023-02-20T00:17:06;0.20;;;0.20;;
57615;SDS011;43816;52.054;-9.494;2023-02-20T00:17:17;0.30;;;0.27;;
57615;SDS011;43816;52.054;-9.494;2023-02-20T00:17:27;0.60;;;0.40;;
57615;SDS011;43816;52.054;-9.494;2023-02-20T00:17:37;0.67;;;0.40;;
57615;SDS011;43816;52.054;-9.494;2023-02-20T00:17:47;0.60;;;0.40;;
57615;SDS011;43816;52.054;-9.494;2023-02-20T00:17:58;0.47;;;0.30;;
57615;SDS011;43816;52.054;-9.494;2023-02-20T00:18:08;0.40;;;0.30;;
57615;SDS011;43816;52.054;-9.494;2023-02-20T00:18:19;0.43;;;0.30;;
57615;SDS011;43816;52.054;-9.494;2023-02-20T00:18:29;0.38;;;0.28;;
57615;SDS011;43816;52.054;-9.494;2023-02-20T00:18:39;0.50;;;0.30;;
57615;SDS011;43816;52.054;-9.494;2023-02-20T00:18:50;0.40;;;0.22;;
57615;SDS011;43816;52.054;-9.494;2023-02-20T00:19:00;0.37;;;0.23;;
57615;SDS011;43816;52.054;-9.494;2023-02-20T00:19:10;0.37;;;0.27;;
57615;SDS011;43816;52.054;-9.494;2023-02-20T00:19:21;0.40;;;0.30;;
57615;SDS011;43816;52.054;-9.494;2023-02-20T00:19:31;0.40;;;0.30;;
57615;SDS011;43816;52.054;-9.494;2023-02-20T00:19:41;0.47;;;0.30;;
57615;SDS011;43816;52.054;-9.494;2023-02-20T00:19:52;0.40;;;0.30;;
57615;SDS011;43816;52.054;-9.494;2023-02-20T00:20:02;0.50;;;0.30;;
57615;SDS011;43816;52.054;-9.494;2023-02-20T00:20:13;0.40;;;0.30;;
57615;SDS011;43816;52.054;-9.494;2023-02-20T00:20:28;0.45;;;0.30;;
57615;SDS011;43816;52.054;-9.494;2023-02-20T00:20:38;0.40;;;0.30;;
57615;SDS011;43816;52.054;-9.494;2023-02-20T00:20:48;0.60;;;0.30;;
57615;SDS011;43816;52.054;-9.494;2023-02-20T00:20:59;0.90;;;0.63;;
57615;SDS011;43816;52.054;-9.494;2023-02-20T00:21:09;1.40;;;0.70;;
57615;SDS011;43816;52.054;-9.494;2023-02-20T00:21:19;1.25;;;0.68;;
57615;SDS011;43816;52.054;-9.494;2023-02-20T00:21:30;0.93;;;0.37;;
57615;SDS011;43816;52.054;-9.494;2023-02-20T00:21:44;0.73;;;0.32;;
57615;SDS011;43816;52.054;-9.494;2023-02-20T00:21:57;0.55;;;0.30;;
57615;SDS011;43816;52.054;-9.494;2023-02-20T00:22:08;0.37;;;0.27;;
57615;SDS011;43816;52.054;-9.494;2023-02-20T00:22:20;0.37;;;0.20;;
57615;SDS011;43816;52.054;-9.494;2023-02-20T00:22:31;0.50;;;0.20;;
57615;SDS011;43816;52.054;-9.494;2023-02-20T00:22:41;0.43;;;0.20;;
57615;SDS011;43816;52.054;-9.494;2023-02-20T00:22:51;0.67;;;0.30;;
57615;SDS011;43816;52.054;-9.494;2023-02-20T00:23:02;0.82;;;0.30;;
57615;SDS011;43816;52.054;-9.494;2023-02-20T00:23:12;0.97;;;0.30;;
57615;SDS011;43816;52.054;-9.494;2023-02-20T00:23:23;0.60;;;0.20;;
57615;SDS011;43816;52.054;-9.494;2023-02-20T00:23:33;0.37;;;0.20;;
57615;SDS011;43816;52.054;-9.494;2023-02-20T00:23:43;0.50;;;0.23;;
57615;SDS011;43816;52.054;-9.494;2023-02-20T00:23:54;0.60;;;0.30;;
57615;SDS011;43816;52.054;-9.494;2023-02-20T00:24:04;0.55;;;0.25;;
57615;SDS011;43816;52.054;-9.494;2023-02-20T00:24:15;0.77;;;0.30;;
57615;SDS011;43816;52.054;-9.494;2023-02-20T00:24:25;0.88;;;0.40;;
57615;SDS011;43816;52.054;-9.494;2023-02-20T00:24:35;0.80;;;0.37;;
57615;SDS011;43816;52.054;-9.494;2023-02-20T00:24:46;0.40;;;0.25;;
57615;SDS011;43816;52.054;-9.494;2023-02-20T00:24:56;0.30;;;0.20;;
57615;SDS011;43816;52.054;-9.494;2023-02-20T00:25:06;0.40;;;0.20;;
57615;SDS011;43816;52.054;-9.494;2023-02-20T00:25:18;0.30;;;0.20;;
57615;SDS011;43816;52.054;-9.494;2023-02-20T00:25:29;0.35;;;0.20;;
57615;SDS011;43816;52.054;-9.494;2023-02-20T00:25:40;0.30;;;0.20;;
57615;SDS011;43816;52.054;-9.494;2023-02-20T00:25:50;0.30;;;0.20;;
57615;SDS011;43816;52.054;-9.494;2023-02-20T00:26:00;0.20;;;0.20;;
57615;SDS011;43816;52.054;-9.494;2023-02-20T00:26:12;0.30;;;0.20;;
57615;SDS011;43816;52.054;-9.494;2023-02-20T00:26:22;0.45;;;0.30;;
57615;SDS011;43816;52.054;-9.494;2023-02-20T00:26:33;0.40;;;0.30;;
57615;SDS011;43816;52.054;-9.494;2023-02-20T00:26:50;0.30;;;0.23;;
57615;SDS011;43816;52.054;-9.494;2023-02-20T00:27:01;0.30;;;0.30;;
57615;SDS011;43816;52.054;-9.494;2023-02-20T00:27:12;0.30;;;0.30;;
57615;SDS011;43816;52.054;-9.494;2023-02-20T00:27:22;0.40;;;0.30;;
57615;SDS011;43816;52.054;-9.494;2023-02-20T00:27:32;0.40;;;0.30;;
57615;SDS011;43816;52.054;-9.494;2023-02-20T00:27:43;0.50;;;0.30;;
57615;SDS011;43816;52.054;-9.494;2023-02-20T00:27:53;0.73;;;0.30;;
57615;SDS011;43816;52.054;-9.494;2023-02-20T00:28:04;0.80;;;0.30;;
57615;SDS011;43816;52.054;-9.494;2023-02-20T00:28:14;0.80;;;0.35;;
57615;SDS011;43816;52.054;-9.494;2023-02-20T00:28:24;0.80;;;0.40;;
57615;SDS011;43816;52.054;-9.494;2023-02-20T00:28:36;1.20;;;0.40;;
57615;SDS011;43816;52.054;-9.494;2023-02-20T00:28:47;1.10;;;0.30;;
57615;SDS011;43816;52.054;-9.494;2023-02-20T00:28:58;0.80;;;0.20;;
57615;SDS011;43816;52.054;-9.494;2023-02-20T00:29:08;0.30;;;0.20;;
57615;SDS011;43816;52.054;-9.494;2023-02-20T00:29:19;0.30;;;0.20;;
57615;SDS011;43816;52.054;-9.494;2023-02-20T00:29:32;0.20;;;0.20;;
57615;SDS011;43816;52.054;-9.494;2023-02-20T00:29:45;0.20;;;0.20;;
57615;SDS011;43816;52.054;-9.494;2023-02-20T00:29:56;0.88;;;0.30;;
57615;SDS011;43816;52.054;-9.494;2023-02-20T00:30:06;0.90;;;0.30;;
57615;SDS011;43816;52.054;-9.494;2023-02-20T00:30:18;0.32;;;0.15;;
57615;SDS011;43816;52.054;-9.494;2023-02-20T00:30:30;0.32;;;0.13;;
57615;SDS011;43816;52.054;-9.494;2023-02-20T00:30:40;0.40;;;0.20;;
57615;SDS011;43816;52.054;-9.494;2023-02-20T00:30:51;0.40;;;0.20;;
57615;SDS011;43816;52.054;-9.494;2023-02-20T00:31:01;0.20;;;0.20;;
57615;SDS011;43816;52.054;-9.494;2023-02-20T00:31:13;0.23;;;0.20;;
57615;SDS011;43816;52.054;-9.494;2023-02-20T00:31:24;0.30;;;0.20;;
57615;SDS011;43816;52.054;-9.494;2023-02-20T00:31:34;0.20;;;0.20;;
57615;SDS011;43816;52.054;-9.494;2023-02-20T00:31:51;0.20;;;0.20;;
57615;SDS011;43816;52.054;-9.494;2023-02-20T00:32:03;0.22;;;0.20;;
57615;SDS011;43816;52.054;-9.494;2023-02-20T00:32:15;0.32;;;0.30;;
57615;SDS011;43816;52.054;-9.494;2023-02-20T00:32:25;0.40;;;0.30;;
57615;SDS011;43816;52.054;-9.494;2023-02-20T00:32:36;0.73;;;0.30;;
57615;SDS011;43816;52.054;-9.494;2023-02-20T00:32:46;0.70;;;0.20;;
57615;SDS011;43816;52.054;-9.494;2023-02-20T00:32:58;0.73;;;0.20;;
57615;SDS011;43816;52.054;-9.494;2023-02-20T00:33:09;0.40;;;0.17;;
57615;SDS011;43816;52.054;-9.494;2023-02-20T00:33:19;0.77;;;0.20;;
57615;SDS011;43816;52.054;-9.494;2023-02-20T00:33:29;0.80;;;0.30;;
57615;SDS011;43816;52.054;-9.494;2023-02-20T00:33:40;0.73;;;0.33;;
57615;SDS011;43816;52.054;-9.494;2023-02-20T00:33:50;0.47;;;0.30;;
57615;SDS011;43816;52.054;-9.494;2023-02-20T00:34:01;0.40;;;0.30;;
57615;SDS011;43816;52.054;-9.494;2023-02-20T00:34:11;0.50;;;0.20;;
57615;SDS011;43816;52.054;-9.494;2023-02-20T00:34:22;0.43;;;0.20;;
57615;SDS011;43816;52.054;-9.494;2023-02-20T00:34:34;0.43;;;0.20;;
57615;SDS011;43816;52.054;-9.494;2023-02-20T00:34:44;0.40;;;0.20;;
57615;SDS011;43816;52.054;-9.494;2023-02-20T00:34:54;0.40;;;0.20;;
57615;SDS011;43816;52.054;-9.494;2023-02-20T00:35:04;0.30;;;0.20;;
57615;SDS011;43816;52.054;-9.494;2023-02-20T00:35:15;0.20;;;0.10;;
57615;SDS011;43816;52.054;-9.494;2023-02-20T00:35:26;0.30;;;0.10;;
57615;SDS011;43816;52.054;-9.494;2023-02-20T00:35:37;0.20;;;0.20;;
57615;SDS011;43816;52.054;-9.494;2023-02-20T00:35:47;0.40;;;0.30;;
57615;SDS011;43816;52.054;-9.494;2023-02-20T00:35:58;0.50;;;0.37;;
57615;SDS011;43816;52.054;-9.494;2023-02-20T00:36:13;0.63;;;0.40;;
57615;SDS011;43816;52.054;-9.494;2023-02-20T00:36:25;0.60;;;0.22;;
57615;SDS011;43816;52.054;-9.494;2023-02-20T00:36:35;0.50;;;0.20;;
57615;SDS011;43816;52.054;-9.494;2023-02-20T00:36:45;0.33;;;0.20;;
57615;SDS011;43816;52.054;-9.494;2023-02-20T00:36:55;0.33;;;0.30;;
57615;SDS011;43816;52.054;-9.494;2023-02-20T00:37:06;0.30;;;0.28;;
57615;SDS011;43816;52.054;-9.494;2023-02-20T00:37:16;0.30;;;0.20;;
57615;SDS011;43816;52.054;-9.494;2023-02-20T00:37:27;0.15;;;0.15;;
57615;SDS011;43816;52.054;-9.494;2023-02-20T00:37:37;0.13;;;0.13;;
57615;SDS011;43816;52.054;-9.494;2023-02-20T00:37:47;0.30;;;0.20;;
57615;SDS011;43816;52.054;-9.494;2023-02-20T00:37:58;0.40;;;0.20;;
57615;SDS011;43816;52.054;-9.494;2023-02-20T00:38:08;0.50;;;0.23;;
57615;SDS011;43816;52.054;-9.494;2023-02-20T00:38:19;0.38;;;0.20;;
57615;SDS011;43816;52.054;-9.494;2023-02-20T00:38:29;0.20;;;0.20;;
57615;SDS011;43816;52.054;-9.494;2023-02-20T00:38:40;0.20;;;0.20;;
57615;SDS011;43816;52.054;-9.494;2023-02-20T00:38:52;0.63;;;0.20;;
57615;SDS011;43816;52.054;-9.494;2023-02-20T00:39:02;0.63;;;0.20;;
57615;SDS011;43816;52.054;-9.494;2023-02-20T00:39:12;0.43;;;0.20;;
57615;SDS011;43816;52.054;-9.494;2023-02-20T00:39:23;0.40;;;0.20;;
57615;SDS011;43816;52.054;-9.494;2023-02-20T00:39:33;0.30;;;0.20;;
57615;SDS011;43816;52.054;-9.494;2023-02-20T00:39:43;0.20;;;0.20;;
57615;SDS011;43816;52.054;-9.494;2023-02-20T00:39:54;0.23;;;0.23;;
57615;SDS011;43816;52.054;-9.494;2023-02-20T00:40:04;0.30;;;0.20;;
57615;SDS011;43816;52.054;-9.494;2023-02-20T00:40:15;0.35;;;0.20;;
57615;SDS011;43816;52.054;-9.494;2023-02-20T00:40:27;0.47;;;0.20;;
57615;SDS011;43816;52.054;-9.494;2023-02-20T00:40:37;0.70;;;0.23;;
57615;SDS011;43816;52.054;-9.494;2023-02-20T00:40:47;0.50;;;0.20;;
57615;SDS011;43816;52.054;-9.494;2023-02-20T00:40:58;0.40;;;0.20;;
57615;SDS011;43816;52.054;-9.494;2023-02-20T00:41:08;0.20;;;0.20;;
57615;SDS011;43816;52.054;-9.494;2023-02-20T00:41:19;0.20;;;0.20;;
57615;SDS011;43816;52.054;-9.494;2023-02-20T00:41:29;0.30;;;0.20;;
57615;SDS011;43816;52.054;-9.494;2023-02-20T00:41:39;0.20;;;0.20;;
57615;SDS011;43816;52.054;-9.494;2023-02-20T00:41:50;0.17;;;0.13;;
57615;SDS011;43816;52.054;-9.494;2023-02-20T00:42:00;0.10;;;0.10;;
57615;SDS011;43816;52.054;-9.494;2023-02-20T00:42:11;0.20;;;0.10;;
57615;SDS011;43816;52.054;-9.494;2023-02-20T00:42:21;0.20;;;0.13;;
57615;SDS011;43816;52.054;-9.494;2023-02-20T00:42:31;0.20;;;0.20;;
57615;SDS011;43816;52.054;-9.494;2023-02-20T00:42:42;0.20;;;0.20;;
57615;SDS011;43816;52.054;-9.494;2023-02-20T00:42:52;0.30;;;0.20;;
57615;SDS011;43816;52.054;-9.494;2023-02-20T00:43:02;0.20;;;0.20;;
57615;SDS011;43816;52.054;-9.494;2023-02-20T00:43:13;0.20;;;0.20;;
57615;SDS011;43816;52.054;-9.494;2023-02-20T00:43:23;0.20;;;0.20;;
57615;SDS011;43816;52.054;-9.494;2023-02-20T00:43:33;0.30;;;0.20;;
57615;SDS011;43816;52.054;-9.494;2023-02-20T00:43:43;0.23;;;0.20;;
57615;SDS011;43816;52.054;-9.494;2023-02-20T00:43:54;0.23;;;0.20;;
57615;SDS011;43816;52.054;-9.494;2023-02-20T00:44:04;0.30;;;0.20;;
57615;SDS011;43816;52.054;-9.494;2023-02-20T00:44:15;0.30;;;0.20;;
57615;SDS011;43816;52.054;-9.494;2023-02-20T00:44:26;0.30;;;0.20;;
57615;SDS011;43816;52.054;-9.494;2023-02-20T00:44:36;0.20;;;0.20;;
57615;SDS011;43816;52.054;-9.494;2023-02-20T00:44:46;0.23;;;0.23;;
57615;SDS011;43816;52.054;-9.494;2023-02-20T00:44:56;0.40;;;0.28;;
57615;SDS011;43816;52.054;-9.494;2023-02-20T00:45:07;0.33;;;0.23;;
57615;SDS011;43816;52.054;-9.494;2023-02-20T00:45:18;0.20;;;0.20;;
57615;SDS011;43816;52.054;-9.494;2023-02-20T00:45:29;0.25;;;0.20;;
57615;SDS011;43816;52.054;-9.494;2023-02-20T00:45:39;0.40;;;0.20;;
57615;SDS011;43816;52.054;-9.494;2023-02-20T00:45:49;0.45;;;0.20;;
57615;SDS011;43816;52.054;-9.494;2023-02-20T00:45:59;0.50;;;0.20;;
57615;SDS011;43816;52.054;-9.494;2023-02-20T00:46:11;0.60;;;0.20;;
57615;SDS011;43816;52.054;-9.494;2023-02-20T00:46:22;0.63;;;0.30;;
57615;SDS011;43816;52.054;-9.494;2023-02-20T00:46:32;0.73;;;0.23;;
57615;SDS011;43816;52.054;-9.494;2023-02-20T00:46:43;0.57;;;0.20;;
57615;SDS011;43816;52.054;-9.494;2023-02-20T00:46:53;0.40;;;0.20;;
57615;SDS011;43816;52.054;-9.494;2023-02-20T00:47:03;0.20;;;0.20;;
57615;SDS011;43816;52.054;-9.494;2023-02-20T00:47:14;0.20;;;0.20;;
57615;SDS011;43816;52.054;-9.494;2023-02-20T00:47:24;0.30;;;0.22;;
57615;SDS011;43816;52.054;-9.494;2023-02-20T00:47:34;0.20;;;0.20;;
57615;SDS011;43816;52.054;-9.494;2023-02-20T00:47:45;0.20;;;0.20;;
57615;SDS011;43816;52.054;-9.494;2023-02-20T00:47:55;0.40;;;0.20;;
57615;SDS011;43816;52.054;-9.494;2023-02-20T00:48:06;0.40;;;0.20;;
57615;SDS011;43816;52.054;-9.494;2023-02-20T00:48:16;0.30;;;0.20;;
57615;SDS011;43816;52.054;-9.494;2023-02-20T00:48:26;0.20;;;0.20;;
57615;SDS011;43816;52.054;-9.494;2023-02-20T00:48:37;0.20;;;0.20;;
57615;SDS011;43816;52.054;-9.494;2023-02-20T00:48:47;0.20;;;0.20;;
57615;SDS011;43816;52.054;-9.494;2023-02-20T00:48:57;0.40;;;0.20;;
57615;SDS011;43816;52.054;-9.494;2023-02-20T00:49:08;0.40;;;0.20;;
57615;SDS011;43816;52.054;-9.494;2023-02-20T00:49:18;0.30;;;0.10;;
57615;SDS011;43816;52.054;-9.494;2023-02-20T00:49:28;0.20;;;0.20;;
57615;SDS011;43816;52.054;-9.494;2023-02-20T00:49:38;0.37;;;0.27;;
57615;SDS011;43816;52.054;-9.494;2023-02-20T00:49:49;0.50;;;0.30;;
57615;SDS011;43816;52.054;-9.494;2023-02-20T00:49:59;0.40;;;0.23;;
57615;SDS011;43816;52.054;-9.494;2023-02-20T00:50:11;0.20;;;0.20;;
57615;SDS011;43816;52.054;-9.494;2023-02-20T00:50:22;0.15;;;0.15;;
57615;SDS011;43816;52.054;-9.494;2023-02-20T00:50:32;0.20;;;0.20;;
57615;SDS011;43816;52.054;-9.494;2023-02-20T00:50:43;0.25;;;0.10;;
57615;SDS011;43816;52.054;-9.494;2023-02-20T00:50:53;0.57;;;0.20;;
57615;SDS011;43816;52.054;-9.494;2023-02-20T00:51:03;0.60;;;0.20;;
57615;SDS011;43816;52.054;-9.494;2023-02-20T00:51:14;0.50;;;0.10;;
57615;SDS011;43816;52.054;-9.494;2023-02-20T00:51:24;0.30;;;0.13;;
57615;SDS011;43816;52.054;-9.494;2023-02-20T00:51:35;0.38;;;0.20;;
57615;SDS011;43816;52.054;-9.494;2023-02-20T00:51:45;0.47;;;0.20;;
57615;SDS011;43816;52.054;-9.494;2023-02-20T00:51:55;0.47;;;0.20;;
57615;SDS011;43816;52.054;-9.494;2023-02-20T00:52:05;0.47;;;0.20;;
57615;SDS011;43816;52.054;-9.494;2023-02-20T00:52:16;0.37;;;0.20;;
57615;SDS011;43816;52.054;-9.494;2023-02-20T00:52:26;0.20;;;0.20;;
57615;SDS011;43816;52.054;-9.494;2023-02-20T00:52:36;0.20;;;0.20;;
57615;SDS011;43816;52.054;-9.494;2023-02-20T00:52:47;0.20;;;0.20;;
57615;SDS011;43816;52.054;-9.494;2023-02-20T00:52:57;0.30;;;0.20;;
57615;SDS011;43816;52.054;-9.494;2023-02-20T00:53:07;0.38;;;0.17;;
57615;SDS011;43816;52.054;-9.494;2023-02-20T00:53:18;0.47;;;0.17;;
57615;SDS011;43816;52.054;-9.494;2023-02-20T00:53:28;0.30;;;0.10;;
57615;SDS011;43816;52.054;-9.494;2023-02-20T00:53:38;0.30;;;0.10;;
57615;SDS011;43816;52.054;-9.494;2023-02-20T00:53:48;0.23;;;0.10;;
57615;SDS011;43816;52.054;-9.494;2023-02-20T00:53:59;0.30;;;0.10;;
57615;SDS011;43816;52.054;-9.494;2023-02-20T00:54:09;0.30;;;0.20;;
57615;SDS011;43816;52.054;-9.494;2023-02-20T00:54:19;0.30;;;0.20;;
57615;SDS011;43816;52.054;-9.494;2023-02-20T00:54:29;0.50;;;0.20;;
57615;SDS011;43816;52.054;-9.494;2023-02-20T00:54:40;0.40;;;0.20;;
57615;SDS011;43816;52.054;-9.494;2023-02-20T00:54:50;0.60;;;0.20;;
57615;SDS011;43816;52.054;-9.494;2023-02-20T00:55:01;0.80;;;0.30;;
57615;SDS011;43816;52.054;-9.494;2023-02-20T00:55:12;0.93;;;0.30;;
57615;SDS011;43816;52.054;-9.494;2023-02-20T00:55:22;0.68;;;0.20;;
57615;SDS011;43816;52.054;-9.494;2023-02-20T00:55:32;0.40;;;0.20;;
57615;SDS011;43816;52.054;-9.494;2023-02-20T00:55:43;0.32;;;0.20;;
57615;SDS011;43816;52.054;-9.494;2023-02-20T00:55:53;0.23;;;0.20;;
57615;SDS011;43816;52.054;-9.494;2023-02-20T00:56:03;0.20;;;0.17;;
57615;SDS011;43816;52.054;-9.494;2023-02-20T00:56:14;0.20;;;0.20;;
57615;SDS011;43816;52.054;-9.494;2023-02-20T00:56:24;0.37;;;0.20;;
57615;SDS011;43816;52.054;-9.494;2023-02-20T00:56:34;0.30;;;0.10;;
57615;SDS011;43816;52.054;-9.494;2023-02-20T00:56:45;0.20;;;0.10;;
57615;SDS011;43816;52.054;-9.494;2023-02-20T00:56:55;0.20;;;0.20;;
57615;SDS011;43816;52.054;-9.494;2023-02-20T00:57:05;0.20;;;0.20;;
57615;SDS011;43816;52.054;-9.494;2023-02-20T00:57:16;0.20;;;0.20;;
57615;SDS011;43816;52.054;-9.494;2023-02-20T00:57:26;0.30;;;0.20;;
57615;SDS011;43816;52.054;-9.494;2023-02-20T00:57:36;0.33;;;0.20;;
57615;SDS011;43816;52.054;-9.494;2023-02-20T00:57:47;0.22;;;0.10;;
57615;SDS011;43816;52.054;-9.494;2023-02-20T00:57:57;0.10;;;0.10;;
57615;SDS011;43816;52.054;-9.494;2023-02-20T00:58:07;0.30;;;0.10;;
57615;SDS011;43816;52.054;-9.494;2023-02-20T00:58:17;0.50;;;0.20;;
57615;SDS011;43816;52.054;-9.494;2023-02-20T00:58:28;0.53;;;0.20;;
57615;SDS011;43816;52.054;-9.494;2023-02-20T00:58:38;0.40;;;0.20;;
57615;SDS011;43816;52.054;-9.494;2023-02-20T00:58:48;0.32;;;0.15;;
57615;SDS011;43816;52.054;-9.494;2023-02-20T00:58:58;0.30;;;0.10;;
57615;SDS011;43816;52.054;-9.494;2023-02-20T00:59:09;0.30;;;0.13;;
57615;SDS011;43816;52.054;-9.494;2023-02-20T00:59:19;0.25;;;0.20;;
57615;SDS011;43816;52.054;-9.494;2023-02-20T00:59:29;0.20;;;0.20;;
57615;SDS011;43816;52.054;-9.494;2023-02-20T00:59:40;0.10;;;0.10;;
57615;SDS011;43816;52.054;-9.494;2023-02-20T00:59:50;0.20;;;0.13;;
57615;SDS011;43816;52.054;-9.494;2023-02-20T01:00:00;0.28;;;0.20;;
57615;SDS011;43816;52.054;-9.494;2023-02-20T01:00:15;0.23;;;0.20;;
57615;SDS011;43816;52.054;-9.494;2023-02-20T01:00:32;0.20;;;0.20;;
57615;SDS011;43816;52.054;-9.494;2023-02-20T01:00:42;0.30;;;0.20;;
57615;SDS011;43816;52.054;-9.494;2023-02-20T01:00:53;0.20;;;0.20;;
57615;SDS011;43816;52.054;-9.494;2023-02-20T01:01:03;0.20;;;0.20;;
57615;SDS011;43816;52.054;-9.494;2023-02-20T01:01:13;0.10;;;0.10;;
57615;SDS011;43816;52.054;-9.494;2023-02-20T01:01:24;0.10;;;0.10;;
57615;SDS011;43816;52.054;-9.494;2023-02-20T01:01:34;0.17;;;0.10;;
57615;SDS011;43816;52.054;-9.494;2023-02-20T01:01:45;0.27;;;0.20;;
57615;SDS011;43816;52.054;-9.494;2023-02-20T01:01:55;0.20;;;0.10;;
57615;SDS011;43816;52.054;-9.494;2023-02-20T01:02:05;0.20;;;0.20;;
57615;SDS011;43816;52.054;-9.494;2023-02-20T01:02:15;0.10;;;0.10;;
57615;SDS011;43816;52.054;-9.494;2023-02-20T01:02:26;0.20;;;0.20;;
57615;SDS011;43816;52.054;-9.494;2023-02-20T01:02:36;0.17;;;0.10;;
57615;SDS011;43816;52.054;-9.494;2023-02-20T01:02:46;0.20;;;0.10;;
57615;SDS011;43816;52.054;-9.494;2023-02-20T01:02:57;0.23;;;0.17;;
57615;SDS011;43816;52.054;-9.494;2023-02-20T01:03:07;0.20;;;0.20;;